Time;durP1;ratioP1;P1;durP2;ratioP2;P2;SDS_P1;SDS_P2;PMS_P1;PMS_P2;Temp;Humidity;BMP_temperature;BMP_pressure;BME280_temperature;BME280_humidity;BME280_pressure;Samples;Min_cycle;Max_cycle;Signal;HPM_P1;HPM_P2
2022/08/15 00:01:16;;;;;;;11.10;5.25;;;;;;;18.95;82.13;98265.71;1654696;85;21052;-84
2022/08/15 00:03:48;;;;;;;11.70;5.53;;;;;;;18.88;82.02;98271.91;1704004;84;21010;-83
2022/08/15 00:06:21;;;;;;;13.03;6.45;;;;;;;18.85;82.85;98270.80;1703902;84;21010;-82
2022/08/15 00:08:50;;;;;;;;;;;;;;;18.83;83.52;98268.75;1706149;84;21030;-84
2022/08/15 00:11:22;;;;;;;13.05;7.10;;;;;;;18.83;85.74;98274.85;1703839;84;20435;-83
2022/08/15 00:13:54;;;;;;;17.32;6.47;;;;;;;18.79;84.38;98275.16;1673830;86;21031;-83
2022/08/15 00:16:21;;;;;;;14.00;5.58;;;;;;;18.76;83.39;98277.55;1703154;84;20964;-83
2022/08/15 00:18:48;;;;;;;10.95;5.28;;;;;;;18.71;83.73;98286.72;1703570;84;21014;-84
2022/08/15 00:21:19;;;;;;;14.07;6.03;;;;;;;18.71;83.45;98284.92;1673937;86;21483;-83
2022/08/15 00:23:45;;;;;;;13.90;5.70;;;;;;;18.69;84.65;98289.45;1679925;84;21040;-83
2022/08/15 00:26:13;;;;;;;10.68;5.65;;;;;;;18.69;83.44;98296.03;1703609;84;20963;-82
2022/08/15 00:28:40;;;;;;;10.95;5.35;;;;;;;18.66;85.67;98300.19;1703483;84;21011;-82
2022/08/15 00:31:10;;;;;;;9.50;4.50;;;;;;;18.64;85.84;98299.45;1673994;86;21041;-84
2022/08/15 00:33:39;;;;;;;13.03;5.83;;;;;;;18.65;84.87;98298.04;1703379;84;21063;-83
2022/08/15 00:36:07;;;;;;;9.60;5.33;;;;;;;18.66;84.44;98300.19;1703415;84;21023;-83
2022/08/15 00:38:34;;;;;;;8.50;5.40;;;;;;;18.67;84.47;98297.94;1683415;84;21071;-83
2022/08/15 00:43:56;;;;;;;15.20;5.78;;;;;;;18.74;84.59;98305.78;1703684;84;21003;-82
2022/08/15 00:46:27;;;;;;;16.80;6.45;;;;;;;18.73;84.82;98298.81;1672944;86;21055;-82
2022/08/15 00:48:55;;;;;;;10.48;5.90;;;;;;;18.73;83.87;98293.55;1699469;84;21047;-81
2022/08/15 00:51:39;;;;;;;10.15;5.70;;;;;;;18.74;83.95;98295.25;1671712;84;21026;-83
2022/08/15 00:54:11;;;;;;;9.00;5.60;;;;;;;18.77;83.28;98309.98;1694839;84;20995;-83
2022/08/15 00:56:49;;;;;;;13.00;6.45;;;;;;;18.76;84.09;98292.48;1658096;86;21067;-82
2022/08/15 00:59:22;;;;;;;10.45;5.47;;;;;;;18.77;83.95;98296.33;1700454;83;21251;-81
2022/08/15 01:01:49;;;;;;;11.73;6.40;;;;;;;18.79;84.04;98298.41;1703959;83;21004;-83
2022/08/15 01:04:19;;;;;;;12.50;6.83;;;;;;;18.75;84.19;98302.18;1672491;86;21040;-84
2022/08/15 01:06:48;;;;;;;9.85;5.42;;;;;;;18.75;83.70;98314.52;1676053;84;21035;-83
2022/08/15 01:09:17;;;;;;;12.75;5.45;;;;;;;18.70;83.24;98317.45;1696019;84;21038;-82
2022/08/15 01:11:55;;;;;;;10.13;5.25;;;;;;;18.63;84.18;98314.91;1678632;84;21005;-84
2022/08/15 01:14:23;;;;;;;9.83;5.05;;;;;;;18.61;83.22;98314.17;1703686;84;21007;-83
2022/08/15 01:16:52;;;;;;;16.20;5.33;;;;;;;18.55;84.06;98305.39;1674065;86;21012;-83
2022/08/15 01:19:27;;;;;;;17.52;6.37;;;;;;;18.57;83.91;98311.39;1703888;84;21053;-83
2022/08/15 01:22:23;;;;;;;14.47;6.03;;;;;;;18.58;84.03;98307.80;1703627;84;21070;-82
2022/08/15 01:25:04;;;;;;;8.83;5.28;;;;;;;18.59;83.58;98306.38;1681003;84;22198;-79
2022/08/15 01:27:43;;;;;;;14.38;5.90;;;;;;;18.59;83.93;98298.48;1682269;84;21002;-82
2022/08/15 01:30:15;;;;;;;12.13;5.90;;;;;;;18.60;84.65;98295.36;1683813;84;21007;-83
2022/08/15 01:32:43;;;;;;;;;;;;;;;18.60;84.79;98305.89;1706007;84;21038;-82
2022/08/15 01:35:11;;;;;;;11.28;5.60;;;;;;;18.63;85.06;98305.69;1703295;84;20161;-82
2022/08/15 01:37:41;;;;;;;10.88;6.08;;;;;;;18.66;84.07;98308.95;1683581;84;21022;-82
2022/08/15 01:40:19;;;;;;;12.00;6.12;;;;;;;18.67;83.91;98316.37;1703283;84;21042;-82
2022/08/15 01:42:48;;;;;;;13.72;6.08;;;;;;;18.70;84.61;98308.23;1703518;84;20975;-82
2022/08/15 01:45:24;;;;;;;11.18;6.70;;;;;;;18.74;85.21;98307.09;1703471;84;21023;-83
2022/08/15 01:48:16;;;;;;;10.20;5.87;;;;;;;18.80;85.73;98315.91;1675492;85;21014;-81
2022/08/15 01:50:51;;;;;;;10.80;5.83;;;;;;;18.86;85.18;98319.87;1668302;86;21059;-81
2022/08/15 01:53:39;;;;;;;12.63;5.83;;;;;;;18.93;84.48;98313.70;1701067;84;21082;-82
2022/08/15 01:56:11;;;;;;;11.78;5.92;;;;;;;19.00;85.38;98316.24;1696427;84;21008;-82
2022/08/15 01:58:42;;;;;;;17.02;6.20;;;;;;;19.06;84.07;98311.39;1667718;84;21007;-82
2022/08/15 02:01:14;;;;;;;12.23;6.00;;;;;;;19.04;83.87;98319.89;1684796;84;20991;-82
2022/08/15 02:03:45;;;;;;;11.70;6.17;;;;;;;19.05;84.16;98325.50;1710524;84;21102;-82
2022/08/15 02:06:20;;;;;;;9.95;5.28;;;;;;;19.05;83.12;98322.87;1711270;84;21534;-81
2022/08/15 02:08:51;;;;;;;9.73;4.53;;;;;;;19.06;83.60;98325.05;1710130;84;21054;-81
2022/08/15 02:11:21;;;;;;;8.83;4.22;;;;;;;19.04;82.56;98325.64;1710977;82;21039;-82
2022/08/15 02:13:54;;;;;;;8.58;4.58;;;;;;;19.03;82.02;98319.98;1687330;84;21078;-82
2022/08/15 02:16:30;;;;;;;9.15;4.97;;;;;;;18.98;81.82;98314.20;1711441;84;21130;-84
2022/08/15 02:18:59;;;;;;;9.18;4.95;;;;;;;18.96;81.48;98310.83;1682748;85;21485;-83
2022/08/15 02:21:27;;;;;;;8.48;5.15;;;;;;;18.93;81.72;98317.17;1700920;84;21014;-82
2022/08/15 02:23:56;;;;;;;8.10;4.65;;;;;;;18.94;81.87;98311.42;1711289;84;21042;-82
2022/08/15 02:26:23;;;;;;;9.28;5.17;;;;;;;18.92;81.42;98301.47;1711316;84;20999;-82
2022/08/15 02:28:50;;;;;;;12.53;4.85;;;;;;;18.91;81.54;98303.76;1711469;84;21050;-83
2022/08/15 02:31:22;;;;;;;8.78;4.75;;;;;;;18.90;82.10;98295.48;1711448;84;21002;-82
2022/08/15 02:33:53;;;;;;;12.85;5.17;;;;;;;18.86;81.88;98294.39;1710938;84;21003;-83
2022/08/15 02:36:22;;;;;;;9.58;4.60;;;;;;;18.83;81.55;98301.67;1695276;84;21074;-83
2022/08/15 02:38:50;;;;;;;11.30;6.08;;;;;;;18.79;82.05;98301.49;1704525;84;20995;-82
2022/08/15 02:41:29;;;;;;;7.92;5.17;;;;;;;18.75;81.89;98309.25;1699725;84;21022;-81
2022/08/15 02:43:56;;;;;;;9.35;5.62;;;;;;;18.72;82.38;98313.40;1706047;84;21013;-83
2022/08/15 02:46:23;;;;;;;11.20;5.87;;;;;;;18.67;82.13;98311.10;1711681;84;21026;-83
2022/08/15 02:48:53;;;;;;;10.75;5.67;;;;;;;18.59;81.95;98312.12;1711368;84;21018;-83
2022/08/15 02:51:21;;;;;;;15.45;5.85;;;;;;;18.56;82.44;98308.37;1711907;84;21023;-83
2022/08/15 02:53:52;;;;;;;13.08;6.03;;;;;;;18.47;81.12;98312.50;1711884;84;21054;-83
2022/08/15 02:56:23;;;;;;;12.05;5.95;;;;;;;18.42;81.91;98305.39;1692043;84;20979;-83
2022/08/15 02:58:50;;;;;;;13.50;6.03;;;;;;;18.40;83.91;98313.42;1711786;84;21121;-84
2022/08/15 03:01:20;;;;;;;15.05;6.35;;;;;;;18.40;83.46;98317.37;1711913;84;21120;-83
2022/08/15 03:03:51;;;;;;;15.48;6.55;;;;;;;18.39;83.13;98321.41;1711713;84;21006;-83
2022/08/15 03:06:24;;;;;;;11.30;6.15;;;;;;;18.39;83.32;98316.15;1709213;84;20992;-87
2022/08/15 03:08:58;;;;;;;12.93;6.75;;;;;;;18.32;82.90;98310.45;1711619;84;21015;-82
2022/08/15 03:11:23;;;;;;;17.65;4.92;;;;;;;18.21;83.02;98315.63;1711021;84;21069;-83
2022/08/15 03:13:51;;;;;;;13.45;5.08;;;;;;;18.11;83.68;98310.64;1683051;85;21030;-83
2022/08/15 03:16:18;;;;;;;11.85;5.15;;;;;;;18.05;83.57;98311.42;1682852;84;20996;-83
2022/08/15 03:18:45;;;;;;;12.80;4.67;;;;;;;18.01;82.76;98311.26;1689395;84;21007;-82
2022/08/15 03:21:19;;;;;;;13.85;4.35;;;;;;;17.99;82.64;98308.37;1709700;84;21147;-83
2022/08/15 03:23:48;;;;;;;11.88;4.35;;;;;;;17.90;82.79;98309.81;1710804;84;20999;-82
2022/08/15 03:26:14;;;;;;;9.15;4.10;;;;;;;17.84;82.98;98304.49;1686464;84;21018;-82
2022/08/15 03:28:41;;;;;;;10.43;4.33;;;;;;;17.80;83.19;98310.05;1710802;84;21014;-82
2022/08/15 03:31:08;;;;;;;13.15;3.87;;;;;;;17.80;83.06;98310.05;1710979;84;21054;-83
2022/08/15 03:33:38;;;;;;;8.70;4.25;;;;;;;17.85;83.31;98305.36;1711184;84;21030;-82
2022/08/15 03:36:07;;;;;;;9.40;4.45;;;;;;;17.86;82.96;98307.03;1711230;84;21045;-82
2022/08/15 03:38:34;;;;;;;9.30;4.15;;;;;;;17.86;83.06;98301.29;1691585;84;21574;-83
2022/08/15 03:41:08;;;;;;;7.08;3.98;;;;;;;17.87;82.31;98302.98;1682937;85;21035;-82
2022/08/15 03:43:38;;;;;;;10.78;4.33;;;;;;;17.86;82.57;98304.40;1701676;84;20990;-83
2022/08/15 03:46:18;;;;;;;13.88;4.30;;;;;;;17.90;82.88;98299.30;1683055;84;21016;-82
2022/08/15 03:48:50;;;;;;;8.88;4.47;;;;;;;17.92;82.53;98301.35;1702369;84;21022;-82
2022/08/15 03:51:21;;;;;;;14.15;4.47;;;;;;;17.94;82.69;98305.20;1692358;84;21043;-82
2022/08/15 03:53:56;;;;;;;10.23;4.25;;;;;;;17.97;82.74;98300.58;1693179;84;21011;-83
2022/08/15 03:56:27;;;;;;;8.00;4.60;;;;;;;17.99;82.43;98304.42;1692942;84;20995;-83
2022/08/15 03:58:57;;;;;;;8.23;4.55;;;;;;;18.02;83.12;98297.14;1712012;84;21190;-83
2022/08/15 04:01:31;;;;;;;8.43;4.33;;;;;;;18.05;82.65;98302.69;1688153;83;21027;-83
2022/08/15 04:03:59;;;;;;;8.60;4.30;;;;;;;18.08;83.17;98305.09;1711686;84;21486;-83
2022/08/15 04:06:31;;;;;;;9.35;3.92;;;;;;;18.14;83.36;98302.52;1710968;84;21018;-83
2022/08/15 04:09:00;;;;;;;10.70;4.40;;;;;;;18.16;83.22;98303.26;1680739;85;21055;-82
2022/08/15 04:11:30;;;;;;;10.72;4.70;;;;;;;18.20;83.77;98302.09;1658435;85;21563;-83
2022/08/15 04:13:58;;;;;;;11.97;4.55;;;;;;;18.26;83.44;98306.48;1711691;84;21041;-82
2022/08/15 04:16:25;;;;;;;11.97;4.92;;;;;;;18.28;82.98;98303.27;1692021;84;21539;-83
2022/08/15 04:18:53;;;;;;;10.95;5.00;;;;;;;18.32;83.28;98303.04;1680847;85;21012;-81
2022/08/15 04:21:20;;;;;;;12.13;4.60;;;;;;;18.34;83.31;98300.66;1711188;84;20955;-82
2022/08/15 04:23:48;;;;;;;9.90;5.10;;;;;;;18.33;82.75;98302.11;1661746;85;21032;-82
2022/08/15 04:26:17;;;;;;;9.18;4.10;;;;;;;18.33;82.47;98298.16;1710881;84;21083;-83
2022/08/15 04:28:44;;;;;;;9.95;4.87;;;;;;;18.31;82.17;98307.47;1687005;84;21097;-82
2022/08/15 04:31:16;;;;;;;9.73;4.78;;;;;;;18.32;82.59;98297.30;1654335;87;21044;-82
2022/08/15 04:33:44;;;;;;;10.00;5.17;;;;;;;18.29;82.14;98300.99;1654810;87;21515;-82
2022/08/15 04:36:16;;;;;;;10.63;4.80;;;;;;;18.24;81.07;98303.56;1670765;85;21003;-82
2022/08/15 04:38:47;;;;;;;9.80;5.30;;;;;;;18.15;81.26;98302.91;1659039;85;21067;-79
2022/08/15 04:41:14;;;;;;;8.88;5.47;;;;;;;18.18;82.69;98306.63;1663159;85;21020;-81
2022/08/15 04:43:44;;;;;;;14.15;5.80;;;;;;;18.22;82.63;98294.48;1681901;85;21012;-83
2022/08/15 04:46:13;;;;;;;19.82;6.10;;;;;;;18.28;83.10;98295.83;1654442;85;21095;-82
2022/08/15 04:48:41;;;;;;;10.35;5.15;;;;;;;18.34;83.26;98296.72;1682930;85;21066;-83
2022/08/15 04:51:08;;;;;;;12.47;5.87;;;;;;;18.38;82.77;98299.53;1690450;84;21027;-83
2022/08/15 04:53:39;;;;;;;12.60;5.95;;;;;;;18.38;83.17;98286.37;1711451;84;21062;-82
2022/08/15 04:56:06;;;;;;;13.40;6.65;;;;;;;18.50;82.82;98293.85;1712586;84;21099;-84
2022/08/15 04:58:35;;;;;;;15.08;6.58;;;;;;;18.57;83.27;98294.28;1712821;82;21054;-84
2022/08/15 05:01:07;;;;;;;19.95;8.55;;;;;;;18.65;83.65;98292.77;1682595;83;21059;-83
2022/08/15 05:03:37;;;;;;;16.82;8.40;;;;;;;18.73;82.82;98291.40;1697959;82;21027;-84
2022/08/15 05:06:08;;;;;;;14.33;7.37;;;;;;;18.77;84.33;98294.18;1676644;85;21078;-83
2022/08/15 05:08:38;;;;;;;14.50;7.45;;;;;;;18.83;83.93;98290.66;1698631;84;20966;-83
2022/08/15 05:11:19;;;;;;;12.55;7.03;;;;;;;18.91;84.13;98287.47;1677325;85;20992;-83
2022/08/15 05:13:48;;;;;;;14.13;7.05;;;;;;;18.98;84.14;98294.44;1708531;84;21066;-83
2022/08/15 05:16:17;;;;;;;14.33;7.80;;;;;;;19.04;84.05;98301.45;1711478;84;21030;-83
2022/08/15 05:18:44;;;;;;;14.70;7.33;;;;;;;19.15;83.98;98301.14;1675123;85;21040;-83
2022/08/15 05:21:11;;;;;;;17.73;8.60;;;;;;;19.21;83.92;98298.05;1683111;85;21000;-83
2022/08/15 05:23:41;;;;;;;16.80;9.10;;;;;;;19.26;83.46;98309.11;1678499;85;21051;-83
2022/08/15 05:26:12;;;;;;;20.80;9.15;;;;;;;19.28;83.74;98309.35;1711522;84;21474;-84
2022/08/15 05:28:40;;;;;;;14.83;8.65;;;;;;;19.35;83.73;98301.83;1681364;85;21063;-84
2022/08/15 05:31:11;;;;;;;18.60;9.03;;;;;;;19.40;83.40;98298.88;1711362;84;21038;-84
2022/08/15 05:33:42;;;;;;;15.60;7.95;;;;;;;19.43;83.23;98298.63;1681213;85;21362;-83
2022/08/15 05:36:11;;;;;;;15.45;7.25;;;;;;;19.45;82.96;98303.30;1710908;84;21020;-81
2022/08/15 05:39:00;;;;;;;14.73;7.37;;;;;;;19.47;81.89;98309.30;1674762;85;21066;-82
2022/08/15 05:42:10;;;;;;;16.52;6.40;;;;;;;19.47;81.59;98304.86;1698516;83;21061;-82
2022/08/15 05:44:48;;;;;;;13.08;6.25;;;;;;;19.48;81.27;98298.66;1679245;85;21079;-82
2022/08/15 05:47:33;;;;;;;13.20;6.90;;;;;;;19.35;81.42;98305.78;1708659;83;21018;-84
2022/08/15 05:50:11;;;;;;;17.15;6.33;;;;;;;19.30;82.21;98301.80;1711053;84;21019;-82
2022/08/15 05:52:50;;;;;;;10.88;6.62;;;;;;;19.26;82.36;98304.67;1700724;84;21011;-82
2022/08/15 05:55:25;;;;;;;12.75;6.87;;;;;;;19.25;82.65;98312.20;1677912;85;21036;-81
2022/08/15 05:58:42;;;;;;;16.37;7.12;;;;;;;19.33;82.96;98305.53;1698173;84;21084;-80
2022/08/15 06:01:17;;;;;;;14.50;6.78;;;;;;;19.34;83.03;98307.20;1697683;84;21122;-81
2022/08/15 06:03:49;;;;;;;12.73;7.03;;;;;;;19.30;84.00;98317.61;1706631;83;21056;-80
2022/08/15 06:06:20;;;;;;;12.47;6.33;;;;;;;19.34;83.82;98317.29;1699648;84;21070;-81
2022/08/15 06:08:52;;;;;;;10.63;5.92;;;;;;;19.35;83.48;98315.00;1674044;86;21070;-81
2022/08/15 06:11:34;;;;;;;11.08;6.05;;;;;;;19.42;82.70;98312.77;1665360;86;21084;-82
2022/08/15 06:14:23;;;;;;;9.65;5.50;;;;;;;19.48;82.94;98305.24;1671618;86;21559;-81
2022/08/15 06:16:54;;;;;;;13.45;5.80;;;;;;;19.58;83.00;98302.77;1667617;86;21083;-83
2022/08/15 06:19:29;;;;;;;12.33;6.50;;;;;;;19.64;82.66;98304.94;1692856;84;21058;-80
2022/08/15 06:22:27;;;;;;;11.93;6.53;;;;;;;19.65;82.45;98306.60;1670759;86;21055;-83
2022/08/15 06:25:15;;;;;;;13.40;7.58;;;;;;;19.68;82.35;98307.70;1663312;86;21091;-83
2022/08/15 06:27:47;;;;;;;10.93;6.80;;;;;;;19.77;82.03;98312.78;1666690;86;20996;-83
2022/08/15 06:30:22;;;;;;;10.32;6.50;;;;;;;19.84;82.07;98314.02;1655559;85;21071;-82
2022/08/15 06:33:02;;;;;;;11.60;6.92;;;;;;;19.90;81.52;98317.99;1657070;85;21063;-80
2022/08/15 06:35:36;;;;;;;10.45;6.30;;;;;;;19.99;80.97;98319.08;1639471;85;21146;-82
2022/08/15 06:38:46;;;;;;;10.82;6.05;;;;;;;20.08;80.61;98320.20;1668994;86;21036;-82
2022/08/15 06:41:28;;;;;;;11.05;6.40;;;;;;;20.10;80.94;98316.47;1692246;84;21014;-80
2022/08/15 06:43:59;;;;;;;11.05;5.55;;;;;;;20.26;80.33;98320.09;1692415;84;21051;-82
2022/08/15 06:46:35;;;;;;;12.93;6.30;;;;;;;20.36;80.19;98316.27;1665720;86;21108;-82
2022/08/15 06:49:08;;;;;;;11.68;5.42;;;;;;;20.48;80.15;98311.83;1689428;84;21027;-81
2022/08/15 06:51:42;;;;;;;10.03;5.83;;;;;;;20.54;79.64;98310.02;1670283;85;21096;-79
2022/08/15 06:54:23;;;;;;;10.90;6.03;;;;;;;20.60;78.98;98311.72;1657673;85;21092;-80
2022/08/15 06:57:16;;;;;;;13.32;6.70;;;;;;;20.72;79.05;98314.37;1666284;86;21028;-81
2022/08/15 06:59:51;;;;;;;10.35;5.58;;;;;;;20.80;78.68;98315.91;1672636;86;21089;-81
2022/08/15 07:02:56;;;;;;;9.05;5.75;;;;;;;20.91;78.12;98311.08;1667048;86;21040;-80
2022/08/15 07:05:40;;;;;;;10.08;5.70;;;;;;;21.02;77.86;98304.47;1643648;85;21050;-82
2022/08/15 07:08:43;;;;;;;12.93;5.95;;;;;;;21.13;77.16;98295.66;1660946;86;21021;-81
2022/08/15 07:11:45;;;;;;;8.55;4.95;;;;;;;21.25;76.66;98298.16;1664655;84;21078;-82
2022/08/15 07:14:21;;;;;;;12.85;5.20;;;;;;;21.40;76.27;98300.50;1665781;86;21020;-80
2022/08/15 07:17:22;;;;;;;12.47;5.47;;;;;;;21.54;75.86;98298.07;1687071;84;21055;-80
2022/08/15 07:19:51;;;;;;;20.37;8.18;;;;;;;21.71;76.05;98300.65;1694754;84;21508;-80
2022/08/15 07:22:19;;;;;;;12.75;5.78;;;;;;;21.84;75.19;98299.95;1691688;84;21578;-79
2022/08/15 07:24:53;;;;;;;11.73;6.05;;;;;;;22.00;74.65;98303.00;1700731;84;21093;-80
2022/08/15 07:27:33;;;;;;;9.23;5.70;;;;;;;22.04;74.26;98304.42;1664342;85;21019;-81
2022/08/15 07:30:09;;;;;;;13.58;6.17;;;;;;;22.16;74.14;98303.00;1659428;86;21034;-82
2022/08/15 07:32:44;;;;;;;18.25;9.50;;;;;;;22.27;73.59;98304.78;1667324;86;21048;-83
2022/08/15 07:35:16;;;;;;;18.95;10.63;;;;;;;22.40;73.44;98296.97;1672640;86;21052;-81
2022/08/15 07:37:58;;;;;;;31.45;18.90;;;;;;;22.56;73.00;98296.94;1637232;86;21078;-80
2022/08/15 07:40:40;;;;;;;14.13;9.93;;;;;;;22.72;73.03;98294.64;1638531;87;21674;-81
2022/08/15 07:43:32;;;;;;;10.50;5.95;;;;;;;22.91;72.40;98307.59;1650658;86;21170;-81
2022/08/15 07:46:14;;;;;;;8.55;5.50;;;;;;;22.99;70.76;98305.09;1645057;87;21043;-82
2022/08/15 07:48:42;;;;;;;9.70;5.67;;;;;;;23.04;70.59;98306.89;1660781;86;21044;-81
2022/08/15 07:51:23;;;;;;;12.00;7.78;;;;;;;23.15;70.14;98301.94;1659656;86;21045;-81
2022/08/15 07:54:05;;;;;;;8.48;5.47;;;;;;;23.23;70.06;98306.89;1682730;84;21610;-82
2022/08/15 07:56:40;;;;;;;10.93;5.70;;;;;;;23.37;69.57;98308.80;1665833;86;21501;-82
2022/08/15 07:59:22;;;;;;;10.78;5.08;;;;;;;23.49;69.33;98307.68;1664838;84;21954;-82
2022/08/15 08:01:47;;;;;;;9.58;5.40;;;;;;;23.58;69.11;98301.55;1692409;84;21111;-81
2022/08/15 08:04:20;;;;;;;11.25;6.08;;;;;;;23.66;68.18;98302.67;1689459;83;21071;-82
2022/08/15 08:06:58;;;;;;;8.93;5.43;;;;;;;23.74;66.38;98297.00;1689888;84;21049;-81
2022/08/15 08:09:45;;;;;;;9.38;5.45;;;;;;;23.88;67.51;98299.73;1668457;85;21044;-81
2022/08/15 08:12:27;;;;;;;10.68;6.08;;;;;;;23.94;66.95;98301.81;1632525;87;21085;-81
2022/08/15 08:15:20;;;;;;;10.93;6.10;;;;;;;23.96;66.90;98297.70;1662834;86;21382;-82
2022/08/15 08:17:59;;;;;;;10.40;5.92;;;;;;;24.03;66.40;98298.78;1670134;86;21011;-82
2022/08/15 08:20:48;;;;;;;10.93;5.40;;;;;;;24.06;66.26;98291.04;1682184;84;21059;-82
2022/08/15 08:23:22;;;;;;;8.98;5.80;;;;;;;24.13;66.03;98293.45;1692599;84;21023;-81
2022/08/15 08:26:01;;;;;;;9.75;6.12;;;;;;;24.27;65.91;98302.28;1681426;84;21013;-82
2022/08/15 08:28:36;;;;;;;9.43;5.80;;;;;;;24.37;65.56;98294.28;1649214;86;21035;-82
2022/08/15 08:31:44;;;;;;;8.28;5.10;;;;;;;24.50;64.76;98292.16;1695931;84;21092;-81
2022/08/15 08:34:40;;;;;;;7.10;4.92;;;;;;;24.64;64.22;98294.00;1682613;84;21059;-83
2022/08/15 08:37:32;;;;;;;11.33;5.30;;;;;;;24.70;63.88;98298.23;1691150;84;20992;-83
2022/08/15 08:43:38;;;;;;;12.18;5.97;;;;;;;24.81;63.54;98294.55;1697838;84;21107;-83
2022/08/15 08:46:23;;;;;;;9.58;5.30;;;;;;;25.03;63.21;98286.65;1670781;84;21068;-83
2022/08/15 08:49:05;;;;;;;9.85;4.60;;;;;;;25.15;61.67;98285.44;1653621;86;21424;-82
2022/08/15 08:51:37;;;;;;;10.75;7.67;;;;;;;25.27;61.91;98287.89;1686621;84;21015;-81
2022/08/15 08:54:27;;;;;;;10.85;5.55;;;;;;;25.43;61.81;98290.73;1694410;84;21404;-82
2022/08/15 08:57:00;;;;;;;8.13;5.12;;;;;;;25.62;61.77;98287.05;1686514;84;21039;-83
2022/08/15 08:59:38;;;;;;;8.28;4.58;;;;;;;25.79;60.95;98281.37;1658821;86;21036;-81
2022/08/15 09:02:37;;;;;;;7.97;4.28;;;;;;;25.94;58.79;98284.32;1625008;87;21634;-81
2022/08/15 09:05:09;;;;;;;11.78;5.35;;;;;;;25.98;56.59;98283.88;1655364;84;21598;-83
2022/08/15 09:07:41;;;;;;;8.90;5.12;;;;;;;26.04;58.10;98281.05;1720883;83;21035;-82
2022/08/15 09:10:11;;;;;;;10.30;5.80;;;;;;;26.10;56.76;98280.45;1724862;83;20976;-83
2022/08/15 09:15:30;;;;;;;8.53;4.47;;;;;;;25.98;53.92;98271.03;1715880;83;21062;-81
2022/08/15 09:18:05;;;;;;;8.63;4.28;;;;;;;26.06;53.74;98264.42;1714704;83;21178;-82
2022/08/15 09:20:36;;;;;;;7.78;4.22;;;;;;;26.03;52.90;98263.92;1716490;83;20999;-83
2022/08/15 09:23:08;;;;;;;6.58;4.03;;;;;;;26.05;53.41;98260.10;1716784;83;21007;-82
2022/08/15 09:25:49;;;;;;;7.40;4.45;;;;;;;26.08;51.64;98262.44;1713027;83;21023;-81
2022/08/15 09:28:27;;;;;;;7.67;4.35;;;;;;;26.13;52.17;98261.98;1720683;83;21026;-83
2022/08/15 09:30:55;;;;;;;7.47;4.22;;;;;;;26.18;53.13;98257.00;1713808;83;21059;-84
2022/08/15 09:33:46;;;;;;;8.25;3.60;;;;;;;26.29;52.43;98239.92;1715945;83;20996;-84
2022/08/15 09:36:42;;;;;;;5.97;3.60;;;;;;;26.34;50.66;98245.59;1716146;83;21031;-83
2022/08/15 09:39:50;;;;;;;5.95;3.75;;;;;;;26.42;51.36;98241.63;1719675;83;21583;-83
2022/08/15 09:42:51;;;;;;;6.97;3.45;;;;;;;26.60;51.65;98240.25;1712066;83;21063;-83
2022/08/15 09:45:49;;;;;;;5.30;3.30;;;;;;;26.86;50.79;98241.97;1711829;83;21007;-83
2022/08/15 09:48:38;;;;;;;6.03;3.77;;;;;;;27.03;50.70;98237.01;1722246;82;21087;-82
2022/08/15 09:51:34;;;;;;;7.40;4.15;;;;;;;27.24;50.99;98238.39;1717922;82;21106;-85
2022/08/15 09:54:13;;;;;;;6.55;3.42;;;;;;;27.47;51.03;98236.73;1670196;85;21098;-85
2022/08/15 09:56:40;;;;;;;7.42;4.17;;;;;;;27.58;49.24;98237.74;1712939;83;21031;-80
2022/08/15 09:59:25;;;;;;;5.92;3.47;;;;;;;27.66;48.02;98235.57;1691418;83;21531;-79
2022/08/15 10:02:12;;;;;;;5.75;3.67;;;;;;;27.77;48.83;98239.72;1720561;83;21014;-80
2022/08/15 10:04:56;;;;;;;6.00;3.65;;;;;;;27.94;48.80;98233.38;1712497;83;21054;-80
2022/08/15 10:07:49;;;;;;;5.17;3.20;;;;;;;28.07;47.65;98233.34;1670384;85;21091;-81
2022/08/15 10:10:27;;;;;;;8.80;3.72;;;;;;;28.20;46.96;98230.98;1705769;84;20994;-81
2022/08/15 10:13:11;;;;;;;7.47;3.55;;;;;;;28.33;45.08;98234.43;1672371;84;21066;-81
2022/08/15 10:15:45;;;;;;;8.73;3.80;;;;;;;28.41;45.02;98230.89;1667372;85;21062;-79
2022/08/15 10:18:26;;;;;;;7.95;3.75;;;;;;;28.54;45.81;98233.88;1699433;84;21130;-80
2022/08/15 10:21:19;;;;;;;9.70;4.37;;;;;;;28.72;45.91;98227.77;1649304;87;21103;-80
2022/08/15 10:23:52;;;;;;;6.85;3.83;;;;;;;28.87;45.95;98216.31;1706564;84;20991;-80
2022/08/15 10:26:36;;;;;;;7.67;4.03;;;;;;;29.07;45.90;98219.38;1709079;84;21042;-79
2022/08/15 10:29:13;;;;;;;7.33;3.95;;;;;;;29.24;45.82;98218.77;1709438;84;21026;-80
2022/08/15 10:31:53;;;;;;;6.75;3.50;;;;;;;29.39;45.49;98211.63;1686032;84;21487;-81
2022/08/15 10:34:41;;;;;;;8.48;3.83;;;;;;;29.51;45.20;98207.50;1652687;87;21035;-80
2022/08/15 10:37:21;;;;;;;8.18;4.30;;;;;;;29.58;43.60;98198.23;1703347;84;21018;-79
2022/08/15 10:40:23;;;;;;;7.78;3.72;;;;;;;29.43;42.51;98200.89;1679045;85;21086;-80
2022/08/15 10:43:03;;;;;;;9.50;4.60;;;;;;;29.33;42.19;98194.95;1659853;84;21076;-80
2022/08/15 10:45:49;;;;;;;6.72;4.30;;;;;;;29.29;41.06;98187.78;1700742;84;21581;-80
2022/08/15 10:48:48;;;;;;;6.62;4.08;;;;;;;29.34;40.16;98185.89;1680602;85;21004;-80
2022/08/15 10:51:26;;;;;;;7.30;4.30;;;;;;;29.28;41.64;98183.43;1712854;82;20991;-79
2022/08/15 10:54:34;;;;;;;9.38;4.17;;;;;;;29.27;42.11;98183.63;1682714;83;21044;-80
2022/08/15 10:57:04;;;;;;;8.13;4.37;;;;;;;29.28;41.63;98177.25;1701074;83;21051;-79
2022/08/15 10:59:45;;;;;;;10.53;4.65;;;;;;;29.27;42.23;98174.27;1683025;85;20964;-79
2022/08/15 11:02:41;;;;;;;6.75;4.03;;;;;;;29.38;42.82;98177.00;1711964;82;21026;-80
2022/08/15 11:05:12;;;;;;;6.62;4.12;;;;;;;29.53;42.47;98177.88;1663473;85;21023;-80
2022/08/15 11:07:53;;;;;;;5.47;3.57;;;;;;;29.59;41.79;98174.98;1709512;84;21050;-79
2022/08/15 11:10:25;;;;;;;7.22;3.95;;;;;;;29.68;41.94;98173.34;1666803;85;21542;-80
2022/08/15 11:12:57;;;;;;;5.90;3.90;;;;;;;29.72;41.36;98176.05;1680027;84;21054;-80
2022/08/15 11:15:28;;;;;;;6.70;3.90;;;;;;;29.78;40.34;98178.98;1708293;84;21022;-80
2022/08/15 11:18:08;;;;;;;5.85;4.22;;;;;;;29.81;40.63;98175.95;1655628;85;21107;-79
2022/08/15 11:20:40;;;;;;;7.53;4.28;;;;;;;29.82;39.68;98181.10;1700623;84;21034;-79
2022/08/15 11:23:09;;;;;;;7.25;4.20;;;;;;;29.77;40.75;98178.68;1648301;87;21063;-79
2022/08/15 11:25:40;;;;;;;7.05;3.90;;;;;;;29.82;41.04;98184.30;1700548;84;21019;-80
2022/08/15 11:28:20;;;;;;;8.40;4.35;;;;;;;30.05;41.33;98181.55;1695124;84;21030;-79
2022/08/15 11:30:47;;;;;;;8.05;4.40;;;;;;;30.20;40.51;98185.05;1708456;84;20979;-80
2022/08/15 11:33:26;;;;;;;7.87;4.05;;;;;;;30.37;40.59;98184.88;1679172;85;21626;-79
2022/08/15 11:36:13;;;;;;;7.47;4.22;;;;;;;30.44;38.49;98178.58;1708983;84;21074;-79
2022/08/15 11:38:47;;;;;;;7.12;4.25;;;;;;;30.59;39.69;98178.53;1679013;85;21091;-79
2022/08/15 11:41:24;;;;;;;9.23;4.35;;;;;;;30.77;39.52;98179.96;1709012;84;21058;-79
2022/08/15 11:43:53;;;;;;;7.90;4.45;;;;;;;30.70;38.74;98186.61;1706540;84;21016;-79
2022/08/15 11:46:22;;;;;;;6.08;2.70;;;;;;;30.42;38.01;98195.84;1688093;84;21002;-79
2022/08/15 11:49:06;;;;;;;3.70;1.77;;;;;;;29.60;35.12;98220.81;1678909;85;21098;-80
2022/08/15 11:51:41;;;;;;;2.80;1.77;;;;;;;28.89;36.08;98205.78;1708827;84;21030;-79
2022/08/15 11:54:15;;;;;;;6.37;2.30;;;;;;;28.20;37.22;98214.95;1678419;85;21521;-80
2022/08/15 11:56:55;;;;;;;4.28;2.25;;;;;;;27.56;38.84;98241.08;1693377;84;21019;-79
2022/08/15 11:59:29;;;;;;;4.12;1.60;;;;;;;26.70;41.10;98249.42;1702835;84;21046;-79
2022/08/15 12:02:14;;;;;;;3.15;1.45;;;;;;;25.91;43.38;98251.37;1684156;84;21018;-79
2022/08/15 12:04:44;;;;;;;5.15;1.67;;;;;;;25.36;45.18;98229.29;1708321;84;21034;-79
2022/08/15 12:07:19;;;;;;;3.85;1.70;;;;;;;24.85;46.81;98228.14;1678540;85;21059;-79
2022/08/15 12:09:56;;;;;;;8.18;2.10;;;;;;;24.62;49.67;98238.34;1708670;84;21038;-79
2022/08/15 12:12:34;;;;;;;6.95;2.20;;;;;;;24.24;51.38;98232.20;1706868;84;20990;-79
2022/08/15 12:15:17;;;;;;;6.22;2.35;;;;;;;23.71;54.78;98226.12;1679041;85;21555;-78
2022/08/15 12:18:22;;;;;;;5.08;2.20;;;;;;;22.97;59.78;98219.58;1706614;84;21034;-79
2022/08/15 12:21:04;;;;;;;9.53;2.55;;;;;;;22.71;59.57;98213.47;1691156;84;21030;-79